Terminal Aerodrome Forecast
Issued by NWS Shreveport, LA

Home | Current Version | Previous Version | Text Only | Print | Product List | Glossary On
Versions: 1 2 3 4 5 6 7 8 9 10 11 12 13 14 15 16
225
FTUS44 KSHV 291120
TAFGGG
TAF
KGGG 291120Z 2912/3012 17004KT P6SM FEW003
      TEMPO 2912/2914 5SM BR BKN005
     FM291400 20006KT P6SM SCT250
     FM291500 25009KT P6SM SCT035 SCT250
     FM291800 22008KT P6SM VCTS SCT045CB SCT250
     FM300000 18007KT P6SM FEW060 SCT250
     FM300600 20005KT P6SM SCT250=

USA.gov is the U.S. government's official web portal to all federal, state and local government web resources and services.